Pagina principale
METAR-TAF:

METAR-TAF

Aeroporti :

Aeroporto di Bologna-Borgo Panigale

Bologna, Italia

latitudine: 44-32N, longitudine: 011-18E, altezza: 36 m

Osservazione

Il bollettino è stato emesso 26 minuti fa, alle 11:50 UTC
Vento 3 kt da est/sud-est, variando fra nord-est e sud/sud-ovest
Temperature 5°C
Umidità 45%
Pressione 1037 hPa
Visibilità 10 km o più
Nubi sparse ad un'altezza di 4000 ft

METAR: LIPE 091150Z 12003KT 040V200 9999 SCT040 05/M06 Q1037

Ora: 13:16 (12:16 UTC)

Previsione

Il bollettino è stato emesso 1 ora e 16 minuti fa, alle 11:00 UTC
Previsione valida dal 09 alle 12 UTC al 10 alle 12 UTC
Vento 10 kt da nord/nord-ovest
Visibilità 10 km o più
Nubi sparse ad un'altezza di 4000 ft
Evoluzione graduale
dal 09 alle 18 UTC al 09 alle 20 UTC
Vento 7 kt da sud-ovest
Evoluzione graduale
dal 10 alle 09 UTC al 10 alle 11 UTC
Vento 10 kt da ovest/nord-ovest

TAF: LIPE 091100Z 0912/1012 33010KT 9999 SCT040 BECMG 0918/0920 22007KT BECMG 1009/1011 30010KT

Osservazioni e previsioni meteorologiche di più di 4000 aeroporti (messaggi METAR e TAF).

Le stazioni disponibili sono rappresentate dai dischi gialli e rossi sulla carta.

Puntare il mouse per vedere il nome della stazione.

Clicca sopra per visualizzare le osservazioni e previsioni meteorologiche.

Per cambiare la mappa : fare clic sui pulsanti verdi con una croce nera per ingrandire, il pulsante verde con un trattino per diminuire, o sulla freccia verde per le mappe adiacenti.


METAR-TAF: